Time;durP1;ratioP1;P1;durP2;ratioP2;P2;SDS_P1;SDS_P2;PMS_P1;PMS_P2;Temp;Humidity;BMP_temperature;BMP_pressure;BME280_temperature;BME280_humidity;BME280_pressure;Samples;Min_cycle;Max_cycle;Signal;HPM_P1;HPM_P2
2021/08/31 00:00:15;;;;;;;20.37;11.33;;;15.90;96.70;;;;;;5014246;28;20461;-74
2021/08/31 00:02:41;;;;;;;19.90;11.23;;;15.80;96.60;;;;;;5015071;28;20224;-75
2021/08/31 00:05:09;;;;;;;17.97;10.23;;;15.90;96.70;;;;;;5013420;28;20919;-73
2021/08/31 00:07:35;;;;;;;16.90;9.70;;;15.80;96.70;;;;;;5013961;28;20479;-75
2021/08/31 00:10:00;;;;;;;17.73;9.80;;;15.90;96.70;;;;;;5013929;28;20470;-74
2021/08/31 00:12:26;;;;;;;16.67;9.20;;;15.90;96.40;;;;;;5010926;28;20677;-72
2021/08/31 00:14:52;;;;;;;20.67;10.00;;;15.90;96.30;;;;;;5013070;28;20196;-73
2021/08/31 00:17:18;;;;;;;20.67;10.30;;;15.90;96.40;;;;;;5013464;28;20208;-75
2021/08/31 00:19:44;;;;;;;18.43;10.20;;;16.00;96.50;;;;;;5014434;28;20184;-73
2021/08/31 00:22:10;;;;;;;16.40;9.90;;;15.90;96.40;;;;;;5013002;28;20201;-74
2021/08/31 00:24:36;;;;;;;16.47;8.90;;;15.90;96.40;;;;;;5010511;28;20424;-74
2021/08/31 00:27:02;;;;;;;18.07;9.83;;;16.00;96.50;;;;;;5013621;28;20222;-74
2021/08/31 00:29:27;;;;;;;16.13;9.73;;;16.00;96.40;;;;;;5011453;28;20222;-73
2021/08/31 00:31:53;;;;;;;18.57;10.57;;;16.10;96.20;;;;;;5013139;28;20274;-73
2021/08/31 00:34:19;;;;;;;17.57;9.17;;;16.00;96.10;;;;;;5012218;28;20235;-72
2021/08/31 00:36:45;;;;;;;16.10;9.27;;;16.00;96.10;;;;;;5013068;28;20477;-74
2021/08/31 00:39:10;;;;;;;20.10;11.13;;;16.10;96.10;;;;;;5012877;28;20185;-76
2021/08/31 00:41:36;;;;;;;20.00;10.47;;;16.10;96.00;;;;;;5012666;28;20198;-74
2021/08/31 00:44:03;;;;;;;21.33;11.30;;;16.00;95.90;;;;;;5011717;28;20212;-73
2021/08/31 00:46:30;;;;;;;16.60;10.90;;;16.00;96.20;;;;;;5011930;28;20529;-74
2021/08/31 00:48:56;;;;;;;23.67;11.00;;;15.90;96.30;;;;;;5011920;28;20612;-74
2021/08/31 00:51:23;;;;;;;17.73;10.23;;;15.90;96.40;;;;;;5011736;28;20556;-73
2021/08/31 00:53:50;;;;;;;22.80;11.47;;;15.90;96.40;;;;;;5011424;28;20523;-73
2021/08/31 00:56:16;;;;;;;16.10;10.27;;;15.90;96.50;;;;;;5011443;28;20422;-74
2021/08/31 00:58:42;;;;;;;20.37;11.30;;;15.90;96.70;;;;;;5011999;28;20490;-72
2021/08/31 01:01:08;;;;;;;21.80;12.30;;;15.90;96.60;;;;;;5007725;28;20953;-74
2021/08/31 01:03:34;;;;;;;21.10;12.30;;;15.90;96.70;;;;;;5009982;28;20453;-75
2021/08/31 01:06:01;;;;;;;21.97;11.70;;;15.90;96.70;;;;;;5011121;28;20929;-75
2021/08/31 01:08:31;;;;;;;21.53;11.50;;;15.90;96.70;;;;;;5011496;28;20202;-73
2021/08/31 01:11:01;;;;;;;19.80;12.00;;;15.90;96.60;;;;;;5011512;28;20993;-74
2021/08/31 01:13:38;;;;;;;22.80;11.80;;;15.90;96.70;;;;;;5010772;28;20448;-73
2021/08/31 01:16:05;;;;;;;31.97;14.17;;;15.90;96.90;;;;;;5010803;28;20420;-74
2021/08/31 01:18:31;;;;;;;22.10;12.60;;;15.90;96.80;;;;;;5011425;28;20439;-76
2021/08/31 01:20:59;;;;;;;22.10;12.50;;;15.90;96.90;;;;;;5011499;28;20430;-74
2021/08/31 01:23:26;;;;;;;24.83;13.23;;;15.90;96.90;;;;;;5010894;28;20550;-73
2021/08/31 01:25:56;;;;;;;26.30;14.70;;;15.90;96.80;;;;;;5006319;28;20433;-75
2021/08/31 01:28:35;;;;;;;25.63;13.47;;;15.90;96.90;;;;;;5011283;28;20466;-76
2021/08/31 01:31:02;;;;;;;21.47;13.03;;;15.80;97.10;;;;;;5011471;28;20947;-75
2021/08/31 01:33:31;;;;;;;32.70;15.23;;;15.90;97.20;;;;;;5009813;28;20453;-74
2021/08/31 01:35:57;;;;;;;25.77;13.57;;;15.80;97.10;;;;;;5010673;28;20507;-74
2021/08/31 01:38:23;;;;;;;24.67;14.33;;;15.70;97.20;;;;;;5010662;28;20428;-74
2021/08/31 01:40:50;;;;;;;28.40;14.97;;;15.80;97.30;;;;;;5011021;28;20428;-74
2021/08/31 01:43:24;;;;;;;28.47;15.07;;;15.80;97.40;;;;;;5009013;28;20459;-75
2021/08/31 01:45:50;;;;;;;31.07;15.40;;;15.80;97.30;;;;;;5009049;28;20424;-76
2021/08/31 01:48:16;;;;;;;33.23;17.13;;;15.80;97.40;;;;;;5010538;28;20982;-74
2021/08/31 01:50:42;;;;;;;32.40;16.50;;;15.70;97.30;;;;;;5010770;28;20429;-73
2021/08/31 01:53:08;;;;;;;33.40;17.10;;;15.70;97.40;;;;;;5009153;28;20293;-74
2021/08/31 01:55:34;;;;;;;29.33;15.73;;;15.70;97.40;;;;;;5008985;28;20872;-76
2021/08/31 01:58:00;;;;;;;33.77;16.73;;;15.70;97.50;;;;;;5005817;28;20274;-74
2021/08/31 02:00:26;;;;;;;29.00;15.43;;;15.70;97.60;;;;;;5010415;28;20555;-74
2021/08/31 02:02:52;;;;;;;34.43;16.47;;;15.60;97.70;;;;;;5010406;28;20444;-77
2021/08/31 02:05:18;;;;;;;28.93;15.30;;;15.50;97.80;;;;;;5009788;28;20259;-75
2021/08/31 02:07:44;;;;;;;32.30;15.73;;;15.50;98.00;;;;;;5010989;28;20441;-76
2021/08/31 02:10:10;;;;;;;31.23;15.83;;;15.50;98.10;;;;;;5011083;28;20215;-74
2021/08/31 02:12:36;;;;;;;34.30;15.07;;;15.60;98.00;;;;;;5010642;28;20434;-73
2021/08/31 02:15:02;;;;;;;33.47;16.43;;;15.60;97.70;;;;;;5009946;28;20495;-74
2021/08/31 02:17:28;;;;;;;30.73;14.30;;;15.60;97.70;;;;;;5008068;28;20259;-76
2021/08/31 02:19:53;;;;;;;30.73;15.37;;;15.60;97.60;;;;;;5010228;28;20927;-75
2021/08/31 02:22:19;;;;;;;28.70;13.93;;;15.60;97.80;;;;;;5008697;28;20384;-74
2021/08/31 02:24:45;;;;;;;29.10;15.07;;;15.60;97.80;;;;;;5008939;28;20217;-75
2021/08/31 02:27:12;;;;;;;32.87;16.77;;;15.60;97.60;;;;;;5010067;28;20240;-73
2021/08/31 02:29:38;;;;;;;28.97;14.53;;;15.60;97.70;;;;;;5010274;28;20240;-73
2021/08/31 02:32:05;;;;;;;26.93;13.80;;;15.60;97.70;;;;;;5010141;28;20528;-72
2021/08/31 02:34:31;;;;;;;24.00;14.20;;;15.60;97.70;;;;;;5008977;28;20862;-73
2021/08/31 02:36:57;;;;;;;23.53;13.17;;;15.60;97.50;;;;;;5008583;28;21006;-75
2021/08/31 02:39:23;;;;;;;25.43;14.13;;;15.50;97.50;;;;;;5010530;28;20446;-74
2021/08/31 02:41:49;;;;;;;25.90;14.47;;;15.50;97.60;;;;;;5012957;28;20189;-74
2021/08/31 02:44:15;;;;;;;25.43;12.70;;;15.60;97.80;;;;;;5011999;28;20455;-76
2021/08/31 02:46:41;;;;;;;29.73;15.60;;;15.60;97.80;;;;;;5013177;28;20285;-73
2021/08/31 02:49:06;;;;;;;20.50;12.83;;;15.60;97.40;;;;;;5013273;28;20464;-74
2021/08/31 02:51:32;;;;;;;27.20;13.67;;;15.60;97.20;;;;;;5012560;28;20186;-74
2021/08/31 02:53:58;;;;;;;30.20;14.97;;;15.60;97.30;;;;;;5010795;28;20709;-74
2021/08/31 02:56:24;;;;;;;27.70;14.40;;;15.50;97.40;;;;;;5014727;28;20241;-75
2021/08/31 02:58:50;;;;;;;31.83;14.80;;;15.50;97.60;;;;;;5016458;28;20265;-76
2021/08/31 03:03:57;;;;;;;28.03;15.07;;;15.40;97.60;;;;;;5009905;28;20440;-73
2021/08/31 03:06:24;;;;;;;25.63;13.40;;;15.40;97.60;;;;;;5012988;28;20429;-74
2021/08/31 03:08:50;;;;;;;23.60;13.70;;;15.40;97.70;;;;;;5020180;28;20469;-75
2021/08/31 03:11:16;;;;;;;31.63;15.47;;;15.40;97.60;;;;;;5015067;28;20966;-73
2021/08/31 03:13:42;;;;;;;25.50;13.43;;;15.40;97.50;;;;;;5008434;28;20647;-74
2021/08/31 03:16:08;;;;;;;27.13;14.40;;;15.50;97.60;;;;;;5006581;28;20515;-73
2021/08/31 03:18:33;;;;;;;28.50;13.93;;;15.50;97.40;;;;;;5009754;28;20197;-74
2021/08/31 03:20:59;;;;;;;26.00;14.10;;;15.50;97.40;;;;;;5005821;28;20194;-75
2021/08/31 03:23:25;;;;;;;27.63;14.53;;;15.60;97.30;;;;;;5008826;28;20292;-73
2021/08/31 03:25:51;;;;;;;29.00;14.33;;;15.50;97.30;;;;;;5002775;28;20197;-75
2021/08/31 03:28:16;;;;;;;28.80;16.93;;;15.50;97.30;;;;;;5008061;28;20244;-74
2021/08/31 03:30:42;;;;;;;36.37;15.30;;;15.40;97.40;;;;;;5009746;28;20236;-73
2021/08/31 03:33:08;;;;;;;25.57;13.70;;;15.40;97.40;;;;;;5011554;28;20824;-73
2021/08/31 03:35:34;;;;;;;29.40;14.43;;;15.50;97.50;;;;;;5012750;28;20274;-73
2021/08/31 03:38:00;;;;;;;40.80;17.17;;;15.50;97.40;;;;;;5025041;28;20524;-75
2021/08/31 03:40:25;;;;;;;26.80;14.70;;;15.50;97.40;;;;;;5014985;28;20194;-75
2021/08/31 03:42:51;;;;;;;29.47;15.50;;;15.50;97.40;;;;;;5008537;28;20449;-75
2021/08/31 03:45:17;;;;;;;33.73;16.13;;;15.40;97.40;;;;;;5008583;28;20665;-73
2021/08/31 03:47:43;;;;;;;34.43;16.33;;;15.40;97.60;;;;;;5009103;28;20186;-75
2021/08/31 03:50:10;;;;;;;33.03;16.20;;;15.40;97.70;;;;;;5006655;28;20483;-75
2021/08/31 03:52:36;;;;;;;33.87;15.47;;;15.40;97.80;;;;;;5008728;28;20445;-74
2021/08/31 03:55:02;;;;;;;33.67;15.80;;;15.50;97.80;;;;;;5008591;28;20877;-74
2021/08/31 03:57:28;;;;;;;29.17;15.53;;;15.50;97.80;;;;;;5009758;28;20182;-76
2021/08/31 03:59:54;;;;;;;32.70;16.10;;;15.50;97.70;;;;;;5013604;28;20424;-75
2021/08/31 04:02:21;;;;;;;27.83;15.60;;;15.60;97.60;;;;;;5009756;28;20190;-75
2021/08/31 04:04:50;;;;;;;28.83;14.80;;;15.60;97.50;;;;;;5012044;28;20186;-75
2021/08/31 04:07:17;;;;;;;29.60;15.10;;;15.70;97.40;;;;;;5012819;28;20417;-74
2021/08/31 04:09:43;;;;;;;29.93;15.57;;;15.70;97.40;;;;;;5012569;28;20555;-74
2021/08/31 04:12:09;;;;;;;28.17;14.40;;;15.70;97.30;;;;;;5012561;28;20560;-76
2021/08/31 04:14:35;;;;;;;28.10;15.23;;;15.70;97.20;;;;;;5011695;28;20183;-74
2021/08/31 04:17:00;;;;;;;28.40;15.23;;;15.70;97.10;;;;;;5012404;28;20967;-74
2021/08/31 04:19:26;;;;;;;33.33;17.07;;;15.80;97.10;;;;;;5012448;28;20638;-74
2021/08/31 04:21:52;;;;;;;32.13;15.20;;;15.70;97.00;;;;;;5012343;28;20665;-76
2021/08/31 04:24:18;;;;;;;34.53;16.07;;;15.70;97.10;;;;;;5011237;28;20452;-74
2021/08/31 04:26:44;;;;;;;32.13;15.80;;;15.70;97.20;;;;;;5012640;28;20186;-75
2021/08/31 04:29:09;;;;;;;35.40;15.50;;;15.70;97.20;;;;;;5006038;28;20268;-76
2021/08/31 04:31:35;;;;;;;29.00;15.27;;;15.70;97.20;;;;;;5010858;28;20593;-75
2021/08/31 04:34:01;;;;;;;42.50;17.17;;;15.70;97.10;;;;;;5010064;28;20787;-73
2021/08/31 04:36:27;;;;;;;30.43;16.20;;;15.60;97.00;;;;;;5012109;28;20209;-73
2021/08/31 04:38:53;;;;;;;31.00;16.63;;;15.60;97.20;;;;;;5012207;28;20209;-74
2021/08/31 04:41:19;;;;;;;29.10;15.70;;;15.50;97.30;;;;;;5008375;28;20185;-75
2021/08/31 04:43:44;;;;;;;29.20;16.13;;;15.60;97.40;;;;;;5011387;28;20201;-76
2021/08/31 04:46:10;;;;;;;27.63;15.17;;;15.60;97.30;;;;;;5012568;28;20436;-75
2021/08/31 04:48:37;;;;;;;29.23;16.23;;;15.50;97.20;;;;;;5012574;28;20283;-75
2021/08/31 04:51:03;;;;;;;29.90;15.87;;;15.50;97.30;;;;;;5012396;28;20201;-76
2021/08/31 04:53:29;;;;;;;24.93;14.83;;;15.50;97.30;;;;;;5010103;28;21065;-75
2021/08/31 04:55:54;;;;;;;32.80;16.63;;;15.50;97.40;;;;;;5012038;28;20429;-74
2021/08/31 04:58:20;;;;;;;32.53;16.30;;;15.50;97.30;;;;;;5012054;28;20186;-75
2021/08/31 05:00:46;;;;;;;29.23;15.77;;;15.40;97.30;;;;;;5010705;28;20719;-75
2021/08/31 05:03:12;;;;;;;33.90;16.00;;;15.50;97.40;;;;;;5011487;28;20206;-75
2021/08/31 05:05:38;;;;;;;36.63;17.63;;;15.50;97.30;;;;;;5011258;28;20525;-75
2021/08/31 05:08:04;;;;;;;31.03;16.00;;;15.50;97.20;;;;;;5003200;28;20434;-75
2021/08/31 05:10:30;;;;;;;32.30;17.50;;;15.50;97.20;;;;;;5012791;28;20617;-78
2021/08/31 05:12:55;;;;;;;30.00;16.60;;;15.50;97.30;;;;;;5013901;28;20595;-77
2021/08/31 05:15:21;;;;;;;31.83;16.17;;;15.60;97.20;;;;;;5013223;28;20316;-76
2021/08/31 05:17:47;;;;;;;37.70;15.47;;;15.50;97.20;;;;;;5012003;28;20253;-74
2021/08/31 05:20:13;;;;;;;28.30;14.30;;;15.60;97.10;;;;;;5006044;28;20189;-73
2021/08/31 05:22:39;;;;;;;29.40;15.10;;;15.60;96.90;;;;;;5011497;28;21277;-73
2021/08/31 05:25:05;;;;;;;30.33;15.20;;;15.60;96.80;;;;;;5010390;28;20193;-74
2021/08/31 05:27:32;;;;;;;33.83;17.30;;;15.60;96.80;;;;;;5010527;28;20186;-74
2021/08/31 05:29:58;;;;;;;30.57;14.73;;;15.60;96.60;;;;;;5011201;28;20503;-73
2021/08/31 05:32:24;;;;;;;31.60;15.40;;;15.60;96.60;;;;;;5010663;28;20454;-73
2021/08/31 05:34:50;;;;;;;30.83;15.87;;;15.60;96.80;;;;;;5010456;28;20430;-75
2021/08/31 05:37:16;;;;;;;32.03;16.50;;;15.60;96.70;;;;;;5011089;28;20798;-73
2021/08/31 05:39:41;;;;;;;27.33;15.60;;;15.60;96.50;;;;;;5010257;28;20429;-74
2021/08/31 05:42:09;;;;;;;29.13;14.83;;;15.50;96.50;;;;;;5008389;28;20425;-73
2021/08/31 05:44:37;;;;;;;34.00;14.70;;;15.50;96.50;;;;;;5010383;28;20186;-73
2021/08/31 05:47:04;;;;;;;29.00;15.73;;;15.60;96.40;;;;;;5017713;28;20435;-74
2021/08/31 05:49:30;;;;;;;25.93;15.13;;;15.60;96.40;;;;;;5017933;28;20466;-74
2021/08/31 05:51:57;;;;;;;31.00;15.00;;;15.60;96.50;;;;;;5016378;28;20504;-74
2021/08/31 05:54:25;;;;;;;30.27;15.40;;;15.60;96.40;;;;;;5016520;28;20432;-73
2021/08/31 05:56:58;;;;;;;27.13;13.83;;;15.60;96.40;;;;;;5017077;28;20904;-73
2021/08/31 05:59:24;;;;;;;24.27;13.80;;;15.60;96.40;;;;;;5016293;28;20425;-73
2021/08/31 06:01:50;;;;;;;29.30;14.97;;;15.60;96.40;;;;;;5015019;28;20500;-73
2021/08/31 06:04:16;;;;;;;27.83;14.93;;;15.60;96.30;;;;;;5013382;28;20440;-74
2021/08/31 06:06:42;;;;;;;24.30;13.73;;;15.50;96.40;;;;;;5013929;28;20431;-75
2021/08/31 06:09:08;;;;;;;24.17;13.70;;;15.60;96.40;;;;;;5010977;28;20588;-74
2021/08/31 06:11:40;;;;;;;26.20;13.10;;;15.60;96.50;;;;;;5011001;28;20224;-73
2021/08/31 06:14:09;;;;;;;27.10;14.27;;;15.60;96.10;;;;;;5008056;28;20269;-74
2021/08/31 06:16:35;;;;;;;31.10;15.33;;;15.60;96.20;;;;;;5010764;28;20764;-74
2021/08/31 06:19:01;;;;;;;27.03;13.23;;;15.50;96.20;;;;;;5009158;28;20461;-75
2021/08/31 06:21:27;;;;;;;32.90;13.60;;;15.50;96.50;;;;;;5009904;28;20424;-75
2021/08/31 06:23:53;;;;;;;24.93;13.57;;;15.60;96.60;;;;;;5006775;28;20551;-76
2021/08/31 06:26:19;;;;;;;19.60;11.10;;;15.70;96.50;;;;;;5010586;28;20437;-75
2021/08/31 06:28:45;;;;;;;20.50;11.73;;;15.80;96.10;;;;;;5009075;28;20203;-75
2021/08/31 06:31:11;;;;;;;26.23;13.37;;;15.90;95.70;;;;;;5010529;28;20523;-75
2021/08/31 06:33:36;;;;;;;25.10;12.83;;;15.90;95.60;;;;;;5009046;28;20219;-73
2021/08/31 06:36:03;;;;;;;27.27;13.53;;;16.00;95.50;;;;;;5007791;28;20203;-75
2021/08/31 06:38:28;;;;;;;26.37;13.13;;;16.00;95.20;;;;;;5009546;28;20189;-74
2021/08/31 06:40:54;;;;;;;24.90;12.77;;;16.00;95.30;;;;;;5010269;28;20418;-74
2021/08/31 06:43:20;;;;;;;24.23;12.77;;;16.10;95.30;;;;;;5009637;28;20336;-74
2021/08/31 06:45:45;;;;;;;22.53;12.70;;;16.10;94.90;;;;;;5009581;28;20183;-74
2021/08/31 06:48:11;;;;;;;23.30;11.67;;;16.20;94.60;;;;;;5011871;28;20238;-75
2021/08/31 06:50:37;;;;;;;20.20;11.20;;;16.30;94.30;;;;;;5012726;28;20181;-74
2021/08/31 06:53:03;;;;;;;21.00;11.70;;;16.30;93.90;;;;;;5021608;28;20284;-74
2021/08/31 06:55:29;;;;;;;25.40;12.13;;;16.30;93.70;;;;;;5014074;28;20266;-73
2021/08/31 06:57:55;;;;;;;25.00;12.00;;;16.20;93.80;;;;;;5012268;28;20944;-74
2021/08/31 07:00:21;;;;;;;19.60;11.57;;;16.20;94.10;;;;;;5011146;28;20193;-75
2021/08/31 07:02:46;;;;;;;21.83;12.73;;;16.20;94.00;;;;;;5011250;28;20205;-73
2021/08/31 07:05:12;;;;;;;22.57;13.03;;;16.20;94.10;;;;;;5008984;28;20519;-73
2021/08/31 07:07:38;;;;;;;24.43;13.03;;;16.10;94.10;;;;;;5010869;28;20193;-74
2021/08/31 07:10:05;;;;;;;22.13;12.07;;;16.10;94.10;;;;;;5011199;28;20221;-74
2021/08/31 07:12:31;;;;;;;21.90;12.57;;;16.00;94.40;;;;;;5010285;28;20807;-74
2021/08/31 07:14:58;;;;;;;19.20;11.20;;;16.00;94.60;;;;;;5010435;28;20482;-75
2021/08/31 07:17:25;;;;;;;21.07;12.27;;;16.00;94.60;;;;;;5009315;28;20448;-75
2021/08/31 07:19:51;;;;;;;20.50;11.00;;;16.00;94.50;;;;;;5009091;28;20780;-74
2021/08/31 07:22:17;;;;;;;20.40;10.47;;;16.10;94.20;;;;;;5007199;28;20426;-75
2021/08/31 07:24:44;;;;;;;20.07;10.70;;;16.10;94.00;;;;;;5011800;28;20523;-73
2021/08/31 07:27:10;;;;;;;21.20;10.50;;;16.20;93.90;;;;;;5010948;28;20435;-72
2021/08/31 07:29:36;;;;;;;17.10;9.57;;;16.20;93.60;;;;;;5011859;28;20467;-73
2021/08/31 07:32:02;;;;;;;20.53;11.00;;;16.20;93.80;;;;;;5009762;28;21024;-73
2021/08/31 07:34:28;;;;;;;16.87;10.20;;;16.30;93.50;;;;;;5016572;28;20231;-73
2021/08/31 07:36:55;;;;;;;19.13;10.43;;;16.40;93.30;;;;;;5016004;28;20453;-74
2021/08/31 07:39:21;;;;;;;21.60;11.57;;;16.40;92.90;;;;;;5018546;28;20785;-73
2021/08/31 07:41:47;;;;;;;19.50;10.80;;;16.30;93.10;;;;;;5010474;28;20430;-74
2021/08/31 07:44:12;;;;;;;19.00;10.50;;;16.40;93.20;;;;;;5012647;28;20286;-75
2021/08/31 07:46:45;;;;;;;19.53;10.87;;;16.40;93.00;;;;;;5015110;28;20191;-75
2021/08/31 07:49:11;;;;;;;18.37;9.83;;;16.50;93.10;;;;;;5015107;28;20213;-74
2021/08/31 07:51:37;;;;;;;19.87;10.47;;;16.60;92.90;;;;;;5014180;28;20434;-74
2021/08/31 07:54:03;;;;;;;18.20;9.33;;;16.60;92.30;;;;;;5014272;28;20447;-74
2021/08/31 07:56:29;;;;;;;17.93;9.97;;;16.60;92.20;;;;;;5015579;28;20479;-74
2021/08/31 07:58:55;;;;;;;20.27;10.43;;;16.60;92.30;;;;;;5014034;28;20277;-75
2021/08/31 08:01:20;;;;;;;17.87;10.20;;;16.60;92.20;;;;;;5010798;28;20879;-74
2021/08/31 08:03:46;;;;;;;15.73;9.57;;;16.50;91.90;;;;;;5007002;28;20705;-74
2021/08/31 08:06:12;;;;;;;14.70;9.07;;;16.60;92.20;;;;;;5013074;28;20633;-75
2021/08/31 08:08:38;;;;;;;14.63;8.50;;;16.70;91.90;;;;;;5007950;28;20688;-77
2021/08/31 08:11:03;;;;;;;21.13;9.40;;;16.70;91.40;;;;;;5008025;28;20197;-74
2021/08/31 08:13:29;;;;;;;13.87;8.60;;;16.90;91.30;;;;;;5020384;28;20229;-73
2021/08/31 08:15:55;;;;;;;14.60;9.50;;;16.90;90.90;;;;;;5016809;28;20196;-74
2021/08/31 08:18:21;;;;;;;17.37;9.77;;;17.00;90.60;;;;;;5024354;28;20235;-75
2021/08/31 08:20:46;;;;;;;15.23;8.43;;;17.00;90.60;;;;;;5016455;28;20645;-73
2021/08/31 08:23:13;;;;;;;27.03;9.90;;;17.10;90.60;;;;;;5018510;28;20221;-74
2021/08/31 08:25:39;;;;;;;14.40;8.83;;;17.10;90.00;;;;;;5014855;28;20199;-73
2021/08/31 08:28:05;;;;;;;18.00;9.07;;;17.10;89.70;;;;;;5018412;28;20425;-75
2021/08/31 08:30:30;;;;;;;13.77;8.50;;;17.00;89.70;;;;;;5020748;28;21026;-74
2021/08/31 08:32:56;;;;;;;13.13;8.40;;;16.90;89.90;;;;;;5014056;28;20202;-73
2021/08/31 08:35:22;;;;;;;16.40;9.87;;;16.80;90.40;;;;;;5013648;28;20623;-73
2021/08/31 08:37:48;;;;;;;18.73;9.37;;;16.80;90.50;;;;;;5014021;28;20193;-75
2021/08/31 08:40:14;;;;;;;19.57;9.63;;;16.80;90.70;;;;;;5012374;28;20224;-73
2021/08/31 08:42:40;;;;;;;17.67;9.13;;;16.90;90.70;;;;;;5007878;28;20259;-73
2021/08/31 08:45:10;;;;;;;17.10;9.03;;;17.00;90.70;;;;;;5012001;28;20442;-75
2021/08/31 08:47:36;;;;;;;14.50;8.80;;;17.10;90.20;;;;;;5011312;28;20431;-74
2021/08/31 08:50:02;;;;;;;15.03;9.20;;;17.10;89.70;;;;;;5004427;28;20485;-72
2021/08/31 08:52:28;;;;;;;13.53;8.40;;;17.00;90.20;;;;;;5012458;28;20888;-73
2021/08/31 08:54:54;;;;;;;16.43;9.30;;;16.90;90.00;;;;;;5009792;28;20420;-74
2021/08/31 08:57:25;;;;;;;16.93;9.80;;;17.00;90.20;;;;;;5012079;28;20647;-74
2021/08/31 08:59:51;;;;;;;16.77;8.60;;;17.20;89.90;;;;;;5009319;28;20204;-74
2021/08/31 09:02:34;;;;;;;14.23;9.00;;;17.20;88.90;;;;;;5009140;28;20818;-73
2021/08/31 09:05:00;;;;;;;15.47;9.57;;;17.30;88.90;;;;;;5007835;28;20193;-74
2021/08/31 09:07:30;;;;;;;12.40;8.23;;;17.30;88.60;;;;;;5008056;28;20437;-73
2021/08/31 09:10:16;;;;;;;15.90;8.67;;;17.30;88.40;;;;;;5011594;28;20966;-75
2021/08/31 09:12:45;;;;;;;15.37;9.73;;;17.30;88.70;;;;;;5011678;28;20445;-74
2021/08/31 09:15:28;;;;;;;14.63;8.40;;;17.40;88.90;;;;;;5008790;28;20468;-74
2021/08/31 09:18:04;;;;;;;16.17;8.00;;;17.50;88.10;;;;;;5011728;28;20523;-74
2021/08/31 09:20:33;;;;;;;19.77;9.30;;;17.50;87.40;;;;;;5010449;28;20439;-76
2021/08/31 09:22:59;;;;;;;17.60;8.07;;;17.50;87.10;;;;;;5009828;28;20459;-73
2021/08/31 09:25:32;;;;;;;16.37;8.47;;;17.60;87.40;;;;;;5009127;28;20491;-74
2021/08/31 09:27:59;;;;;;;14.27;8.53;;;17.70;86.50;;;;;;5005017;28;21022;-75
2021/08/31 09:30:28;;;;;;;12.10;8.00;;;17.80;86.60;;;;;;5010948;28;20463;-74
2021/08/31 09:33:12;;;;;;;15.60;6.73;;;17.90;85.60;;;;;;5011403;28;20488;-74
2021/08/31 09:35:44;;;;;;;13.43;6.83;;;17.90;85.20;;;;;;5006796;28;20448;-74
2021/08/31 09:38:12;;;;;;;15.30;8.40;;;17.90;84.70;;;;;;5011477;28;21195;-73
2021/08/31 09:40:51;;;;;;;11.73;8.00;;;17.90;85.20;;;;;;5011508;28;20439;-74
2021/08/31 09:43:21;;;;;;;12.40;8.33;;;18.10;84.70;;;;;;5009099;28;20440;-74
2021/08/31 09:45:51;;;;;;;13.03;7.87;;;18.10;84.70;;;;;;5011404;28;20420;-75
2021/08/31 09:48:20;;;;;;;11.70;7.50;;;18.20;84.70;;;;;;5008548;28;20444;-74
2021/08/31 09:50:58;;;;;;;12.03;7.80;;;18.40;83.80;;;;;;5004531;28;20800;-73
2021/08/31 09:53:27;;;;;;;11.20;7.13;;;18.40;81.90;;;;;;5010063;28;20547;-75
2021/08/31 09:56:02;;;;;;;13.43;7.97;;;18.30;81.80;;;;;;5007225;28;20428;-75
2021/08/31 09:58:29;;;;;;;11.37;8.23;;;18.20;82.70;;;;;;5008416;28;20585;-75
2021/08/31 10:00:55;;;;;;;12.87;8.03;;;18.20;83.10;;;;;;5010798;28;20455;-75
2021/08/31 10:03:23;;;;;;;12.87;7.77;;;18.30;83.30;;;;;;5010520;28;20503;-73
2021/08/31 10:05:51;;;;;;;17.33;7.40;;;18.10;83.10;;;;;;5013256;28;20440;-74
2021/08/31 10:08:18;;;;;;;12.90;8.40;;;18.10;84.10;;;;;;5010701;28;20448;-76
2021/08/31 10:10:46;;;;;;;14.17;8.07;;;18.00;85.00;;;;;;5009621;28;20512;-74
2021/08/31 10:13:15;;;;;;;14.67;7.67;;;17.90;84.90;;;;;;5008916;28;20426;-75
2021/08/31 10:15:47;;;;;;;10.87;7.43;;;17.80;85.30;;;;;;5007035;28;20432;-75
2021/08/31 10:18:17;;;;;;;10.33;7.03;;;17.80;85.90;;;;;;5010764;28;20803;-74
2021/08/31 10:21:05;;;;;;;12.63;7.60;;;17.90;85.00;;;;;;5009441;28;20538;-76
2021/08/31 10:23:33;;;;;;;10.63;7.10;;;18.00;85.00;;;;;;5003907;28;20448;-74
2021/08/31 10:26:27;;;;;;;12.00;8.03;;;18.10;84.60;;;;;;5009101;28;21018;-75
2021/08/31 10:29:24;;;;;;;13.47;8.10;;;18.10;84.40;;;;;;5005364;28;20460;-75
2021/08/31 10:31:53;;;;;;;12.37;8.17;;;18.10;84.40;;;;;;4964092;28;20929;-75
2021/08/31 10:34:32;;;;;;;10.77;6.80;;;18.30;83.70;;;;;;4961809;28;20683;-74
2021/08/31 10:37:14;;;;;;;11.43;7.80;;;18.30;83.80;;;;;;4966883;28;20455;-74
2021/08/31 10:39:55;;;;;;;12.20;6.83;;;18.40;81.90;;;;;;4961347;28;20446;-75
2021/08/31 10:42:26;;;;;;;8.87;6.20;;;18.40;82.40;;;;;;4966467;28;20473;-75
2021/08/31 10:44:53;;;;;;;11.30;7.13;;;18.60;81.10;;;;;;4965636;28;20439;-73
2021/08/31 10:47:31;;;;;;;10.50;6.53;;;18.80;80.20;;;;;;4964692;28;20498;-74
2021/08/31 10:49:57;;;;;;;10.27;6.77;;;18.70;78.90;;;;;;4968739;28;20530;-75
2021/08/31 10:52:35;;;;;;;15.13;6.83;;;18.70;79.20;;;;;;4964067;28;20419;-72
2021/08/31 10:55:01;;;;;;;14.23;8.30;;;18.80;80.00;;;;;;4968726;28;20196;-73
2021/08/31 10:57:36;;;;;;;11.63;6.97;;;18.80;80.20;;;;;;4968166;28;21217;-76
2021/08/31 11:00:24;;;;;;;14.50;8.00;;;18.80;80.00;;;;;;4968854;28;20540;-74
2021/08/31 11:02:58;;;;;;;12.00;6.90;;;18.90;80.00;;;;;;4962285;28;20455;-74
2021/08/31 11:05:25;;;;;;;11.47;7.30;;;18.90;79.60;;;;;;4945467;28;20454;-74
2021/08/31 11:08:00;;;;;;;9.47;6.03;;;18.90;79.60;;;;;;4980251;28;20459;-75
2021/08/31 11:10:30;;;;;;;13.60;7.37;;;19.10;79.60;;;;;;5010731;28;20470;-74
2021/08/31 11:12:57;;;;;;;13.23;7.53;;;19.50;79.00;;;;;;5014605;28;20978;-74
2021/08/31 11:15:30;;;;;;;12.60;7.67;;;19.60;77.30;;;;;;5015468;28;20424;-73
2021/08/31 11:17:55;;;;;;;12.10;7.27;;;19.70;77.00;;;;;;5015086;28;20463;-75
2021/08/31 11:20:33;;;;;;;10.60;6.47;;;19.40;77.00;;;;;;5016013;28;20421;-75
2021/08/31 11:23:19;;;;;;;11.10;6.60;;;19.30;77.30;;;;;;5014809;28;20288;-74
2021/08/31 11:25:50;;;;;;;12.30;6.60;;;19.50;76.40;;;;;;5016413;28;20973;-73
2021/08/31 11:28:23;;;;;;;10.97;6.40;;;19.60;75.90;;;;;;5016355;28;20434;-74
2021/08/31 11:31:00;;;;;;;11.43;7.73;;;19.50;76.20;;;;;;5011841;28;20423;-75
2021/08/31 11:33:36;;;;;;;13.40;7.50;;;19.30;76.20;;;;;;5015999;28;20431;-76
2021/08/31 11:36:12;;;;;;;12.77;7.13;;;19.20;77.70;;;;;;5016284;28;20471;-74
2021/08/31 11:38:56;;;;;;;15.50;8.23;;;19.40;77.30;;;;;;5012634;28;20469;-76
2021/08/31 11:41:27;;;;;;;10.60;7.50;;;19.50;76.70;;;;;;5016442;28;20495;-74
2021/08/31 11:43:54;;;;;;;13.40;8.10;;;19.30;77.80;;;;;;5011156;28;20433;-73
2021/08/31 11:46:22;;;;;;;12.87;7.90;;;19.30;77.60;;;;;;5012740;28;20472;-74
2021/08/31 11:48:48;;;;;;;11.00;7.53;;;19.40;78.10;;;;;;5016075;28;20481;-74
2021/08/31 11:51:19;;;;;;;12.47;7.00;;;19.50;77.70;;;;;;5016838;28;20417;-73
2021/08/31 11:53:46;;;;;;;10.50;6.73;;;19.50;75.80;;;;;;5014091;28;21001;-73
2021/08/31 11:56:13;;;;;;;12.53;7.27;;;19.60;76.50;;;;;;5015646;28;20478;-75
2021/08/31 11:58:45;;;;;;;15.70;7.83;;;19.80;75.40;;;;;;5016844;28;20448;-74
2021/08/31 12:01:11;;;;;;;13.77;8.70;;;20.30;74.30;;;;;;5011362;28;20927;-73
2021/08/31 12:03:36;;;;;;;12.70;7.27;;;20.20;74.20;;;;;;5018154;28;20490;-72
2021/08/31 12:06:06;;;;;;;14.20;7.70;;;20.30;74.80;;;;;;5011520;28;20231;-76
2021/08/31 12:08:40;;;;;;;10.73;6.87;;;20.50;74.30;;;;;;5019072;28;20202;-74
2021/08/31 12:11:06;;;;;;;9.70;7.00;;;20.40;73.00;;;;;;5016540;28;20441;-74
2021/08/31 12:13:33;;;;;;;10.33;7.00;;;20.30;73.50;;;;;;5018214;28;20430;-75
2021/08/31 12:16:01;;;;;;;11.20;6.60;;;20.10;73.70;;;;;;5019065;28;20432;-75
2021/08/31 12:18:29;;;;;;;10.03;6.87;;;20.20;74.30;;;;;;5015892;28;20436;-76
2021/08/31 12:21:18;;;;;;;9.33;6.60;;;20.10;73.20;;;;;;5013838;28;20559;-73
2021/08/31 12:23:45;;;;;;;12.13;6.80;;;20.10;73.50;;;;;;5020573;28;20460;-75
2021/08/31 12:26:30;;;;;;;11.90;7.00;;;20.40;72.90;;;;;;5020346;28;21164;-74
2021/08/31 12:29:01;;;;;;;14.33;7.33;;;20.70;72.00;;;;;;5015912;28;20470;-74
2021/08/31 12:31:27;;;;;;;12.60;6.93;;;20.70;71.70;;;;;;5015206;28;20436;-73
2021/08/31 12:33:53;;;;;;;8.33;6.03;;;20.70;71.30;;;;;;5017017;28;20433;-73
2021/08/31 12:36:28;;;;;;;9.17;6.60;;;20.80;71.40;;;;;;5020437;28;20428;-73